Aviation Digital Data Service (ADDS)

Output produced by TAFs form (0537 UTC 20 September 2017)
found at http://www.aviationweather.gov/adds/tafs/
 
KCNY 200532Z 2006/2106 28010KT P6SM FEW120 FEW200 
     FM201100 22010KT P6SM SKC 
     FM201500 20010G20KT P6SM SKC 
     FM202100 21017G26KT P6SM FEW140 FEW250 
     FM210300 28012KT P6SM FEW130 FEW250